sensor_id;sensor_type;location;lat;lon;timestamp;pressure;altitude;pressure_sealevel;temperature;humidity
68075;BME280;54864;52.002;5.468;2022-12-29T00:00:28;99847.50;;;12.74;77.54
68075;BME280;54864;52.002;5.468;2022-12-29T00:01:29;99854.91;;;12.81;77.86
68075;BME280;54864;52.002;5.468;2022-12-29T00:02:32;99856.47;;;12.84;77.24
68075;BME280;54864;52.002;5.468;2022-12-29T00:03:33;99843.38;;;12.57;77.81
68075;BME280;54864;52.002;5.468;2022-12-29T00:04:36;99832.81;;;12.69;77.52
68075;BME280;54864;52.002;5.468;2022-12-29T00:05:36;99838.19;;;12.81;76.90
68075;BME280;54864;52.002;5.468;2022-12-29T00:06:39;99829.09;;;12.72;77.52
68075;BME280;54864;52.002;5.468;2022-12-29T00:07:40;99827.94;;;12.76;77.32
68075;BME280;54864;52.002;5.468;2022-12-29T00:08:42;99831.94;;;12.82;77.46
68075;BME280;54864;52.002;5.468;2022-12-29T00:09:43;99822.63;;;12.89;77.14
68075;BME280;54864;52.002;5.468;2022-12-29T00:10:46;99830.34;;;12.79;76.90
68075;BME280;54864;52.002;5.468;2022-12-29T00:11:47;99830.03;;;12.84;77.23
68075;BME280;54864;52.002;5.468;2022-12-29T00:12:50;99824.19;;;12.91;77.01
68075;BME280;54864;52.002;5.468;2022-12-29T00:14:10;99817.31;;;12.89;76.75
68075;BME280;54864;52.002;5.468;2022-12-29T00:15:30;99824.41;;;12.88;77.39
68075;BME280;54864;52.002;5.468;2022-12-29T00:16:40;99818.81;;;12.80;76.77
68075;BME280;54864;52.002;5.468;2022-12-29T00:17:44;99816.59;;;12.87;76.67
68075;BME280;54864;52.002;5.468;2022-12-29T00:18:45;99814.25;;;12.95;76.70
68075;BME280;54864;52.002;5.468;2022-12-29T00:19:47;99817.94;;;12.92;76.95
68075;BME280;54864;52.002;5.468;2022-12-29T00:21:07;99817.00;;;12.93;76.58
68075;BME280;54864;52.002;5.468;2022-12-29T00:22:34;99813.41;;;12.82;76.65
68075;BME280;54864;52.002;5.468;2022-12-29T00:23:54;99816.03;;;12.94;76.63
68075;BME280;54864;52.002;5.468;2022-12-29T00:25:13;99809.94;;;12.81;76.87
68075;BME280;54864;52.002;5.468;2022-12-29T00:26:33;99806.22;;;12.84;76.87
68075;BME280;54864;52.002;5.468;2022-12-29T00:27:52;99808.84;;;12.96;76.24
68075;BME280;54864;52.002;5.468;2022-12-29T00:29:12;99798.59;;;12.92;76.71
68075;BME280;54864;52.002;5.468;2022-12-29T00:30:31;99801.84;;;12.95;76.76
68075;BME280;54864;52.002;5.468;2022-12-29T00:31:50;99803.66;;;12.95;76.65
68075;BME280;54864;52.002;5.468;2022-12-29T00:33:12;99803.25;;;12.88;76.42
68075;BME280;54864;52.002;5.468;2022-12-29T00:34:33;99799.47;;;12.80;76.84
68075;BME280;54864;52.002;5.468;2022-12-29T00:35:56;99800.31;;;12.67;77.67
68075;BME280;54864;52.002;5.468;2022-12-29T00:37:02;99797.78;;;12.66;77.23
68075;BME280;54864;52.002;5.468;2022-12-29T00:38:05;99795.56;;;12.73;77.53
68075;BME280;54864;52.002;5.468;2022-12-29T00:39:27;99793.63;;;12.87;76.75
68075;BME280;54864;52.002;5.468;2022-12-29T00:40:46;99777.97;;;12.84;76.82
68075;BME280;54864;52.002;5.468;2022-12-29T00:42:08;99787.09;;;12.80;76.97
68075;BME280;54864;52.002;5.468;2022-12-29T00:43:28;99782.41;;;12.84;76.69
68075;BME280;54864;52.002;5.468;2022-12-29T00:44:47;99785.09;;;12.58;77.17
68075;BME280;54864;52.002;5.468;2022-12-29T00:45:49;99771.53;;;12.76;77.03
68075;BME280;54864;52.002;5.468;2022-12-29T00:46:50;99780.63;;;12.84;76.34
68075;BME280;54864;52.002;5.468;2022-12-29T00:47:52;99780.63;;;12.84;76.44
68075;BME280;54864;52.002;5.468;2022-12-29T00:48:54;99774.03;;;12.90;76.21
68075;BME280;54864;52.002;5.468;2022-12-29T00:50:14;99781.53;;;12.96;76.33
68075;BME280;54864;52.002;5.468;2022-12-29T00:51:16;99774.88;;;12.90;76.46
68075;BME280;54864;52.002;5.468;2022-12-29T00:52:17;99769.50;;;12.92;76.15
68075;BME280;54864;52.002;5.468;2022-12-29T00:53:20;99768.69;;;12.79;76.23
68075;BME280;54864;52.002;5.468;2022-12-29T00:54:21;99771.09;;;12.82;76.26
68075;BME280;54864;52.002;5.468;2022-12-29T00:55:24;99765.25;;;12.89;76.30
68075;BME280;54864;52.002;5.468;2022-12-29T00:56:24;99768.00;;;12.88;75.84
68075;BME280;54864;52.002;5.468;2022-12-29T00:57:27;99762.44;;;12.80;76.20
68075;BME280;54864;52.002;5.468;2022-12-29T00:58:29;99763.56;;;12.88;75.70
68075;BME280;54864;52.002;5.468;2022-12-29T00:59:31;99757.72;;;12.96;75.59
68075;BME280;54864;52.002;5.468;2022-12-29T01:00:33;99757.66;;;12.85;75.59
68075;BME280;54864;52.002;5.468;2022-12-29T01:01:34;99761.94;;;12.98;75.49
68075;BME280;54864;52.002;5.468;2022-12-29T01:02:37;99752.69;;;12.80;75.62
68075;BME280;54864;52.002;5.468;2022-12-29T01:03:39;99746.56;;;12.80;75.62
68075;BME280;54864;52.002;5.468;2022-12-29T01:04:41;99756.66;;;12.62;76.10
68075;BME280;54864;52.002;5.468;2022-12-29T01:05:43;99750.06;;;12.80;75.58
68075;BME280;54864;52.002;5.468;2022-12-29T01:06:45;99749.53;;;12.75;75.38
68075;BME280;54864;52.002;5.468;2022-12-29T01:07:47;99744.13;;;12.77;75.54
68075;BME280;54864;52.002;5.468;2022-12-29T01:08:48;99746.84;;;12.88;75.97
68075;BME280;54864;52.002;5.468;2022-12-29T01:10:11;99738.69;;;12.91;75.70
68075;BME280;54864;52.002;5.468;2022-12-29T01:11:12;99749.09;;;12.81;75.79
68075;BME280;54864;52.002;5.468;2022-12-29T01:12:14;99742.66;;;12.73;76.34
68075;BME280;54864;52.002;5.468;2022-12-29T01:13:16;99743.50;;;12.73;76.47
68075;BME280;54864;52.002;5.468;2022-12-29T01:14:17;99735.47;;;12.75;76.73
68075;BME280;54864;52.002;5.468;2022-12-29T01:15:20;99740.69;;;12.63;76.98
68075;BME280;54864;52.002;5.468;2022-12-29T01:16:21;99730.94;;;12.64;77.61
68075;BME280;54864;52.002;5.468;2022-12-29T01:17:23;99740.03;;;12.73;77.26
68075;BME280;54864;52.002;5.468;2022-12-29T01:18:25;99741.84;;;12.59;77.41
68075;BME280;54864;52.002;5.468;2022-12-29T01:19:28;99732.84;;;12.62;77.67
68075;BME280;54864;52.002;5.468;2022-12-29T01:20:30;99739.22;;;12.34;79.07
68075;BME280;54864;52.002;5.468;2022-12-29T01:21:33;99732.78;;;12.25;80.16
68075;BME280;54864;52.002;5.468;2022-12-29T01:22:34;99732.56;;;12.41;80.38
68075;BME280;54864;52.002;5.468;2022-12-29T01:23:36;99737.53;;;12.33;80.55
68075;BME280;54864;52.002;5.468;2022-12-29T01:24:37;99730.97;;;12.26;80.97
68075;BME280;54864;52.002;5.468;2022-12-29T01:25:39;99731.50;;;12.18;81.85
68075;BME280;54864;52.002;5.468;2022-12-29T01:26:40;99734.25;;;12.29;81.64
68075;BME280;54864;52.002;5.468;2022-12-29T01:27:43;99722.44;;;12.10;82.25
68075;BME280;54864;52.002;5.468;2022-12-29T01:28:44;99726.66;;;12.12;82.58
68075;BME280;54864;52.002;5.468;2022-12-29T01:29:46;99716.63;;;12.17;82.34
68075;BME280;54864;52.002;5.468;2022-12-29T01:30:47;99725.81;;;12.12;82.22
68075;BME280;54864;52.002;5.468;2022-12-29T01:31:49;99729.50;;;12.09;82.32
68075;BME280;54864;52.002;5.468;2022-12-29T01:32:51;99721.69;;;12.07;82.70
68075;BME280;54864;52.002;5.468;2022-12-29T01:33:52;99720.53;;;12.12;82.71
68075;BME280;54864;52.002;5.468;2022-12-29T01:34:53;99719.66;;;12.24;82.51
68075;BME280;54864;52.002;5.468;2022-12-29T01:35:59;99722.31;;;11.98;82.60
68075;BME280;54864;52.002;5.468;2022-12-29T01:37:00;99723.16;;;12.12;82.63
68075;BME280;54864;52.002;5.468;2022-12-29T01:38:02;99714.59;;;12.21;82.35
68075;BME280;54864;52.002;5.468;2022-12-29T01:39:03;99718.50;;;12.28;81.64
68075;BME280;54864;52.002;5.468;2022-12-29T01:40:09;99712.47;;;12.26;81.66
68075;BME280;54864;52.002;5.468;2022-12-29T01:41:13;99715.34;;;12.23;81.56
68075;BME280;54864;52.002;5.468;2022-12-29T01:42:19;99711.53;;;12.27;82.09
68075;BME280;54864;52.002;5.468;2022-12-29T01:43:39;99718.63;;;12.39;81.96
68075;BME280;54864;52.002;5.468;2022-12-29T01:44:51;99724.66;;;12.41;82.25
68075;BME280;54864;52.002;5.468;2022-12-29T01:45:54;99724.63;;;12.28;82.71
68075;BME280;54864;52.002;5.468;2022-12-29T01:46:57;99717.03;;;12.36;82.50
68075;BME280;54864;52.002;5.468;2022-12-29T01:48:00;99725.03;;;12.35;82.83
68075;BME280;54864;52.002;5.468;2022-12-29T01:49:11;99726.94;;;12.33;82.31
68075;BME280;54864;52.002;5.468;2022-12-29T01:50:18;99715.75;;;12.29;82.59
68075;BME280;54864;52.002;5.468;2022-12-29T01:51:29;99725.47;;;12.29;82.97
68075;BME280;54864;52.002;5.468;2022-12-29T01:52:35;99738.81;;;12.40;82.71
68075;BME280;54864;52.002;5.468;2022-12-29T01:53:44;99724.03;;;12.37;82.53
68075;BME280;54864;52.002;5.468;2022-12-29T01:54:49;99732.44;;;12.30;82.59
68075;BME280;54864;52.002;5.468;2022-12-29T01:55:57;99728.00;;;12.30;83.01
68075;BME280;54864;52.002;5.468;2022-12-29T01:57:08;99731.41;;;12.20;84.75
68075;BME280;54864;52.002;5.468;2022-12-29T01:58:15;99725.91;;;12.23;85.20
68075;BME280;54864;52.002;5.468;2022-12-29T01:59:24;99730.16;;;12.13;86.19
68075;BME280;54864;52.002;5.468;2022-12-29T02:00:32;99738.81;;;11.89;87.13
68075;BME280;54864;52.002;5.468;2022-12-29T02:01:34;99732.34;;;11.93;87.53
68075;BME280;54864;52.002;5.468;2022-12-29T02:02:35;99730.78;;;12.03;87.53
68075;BME280;54864;52.002;5.468;2022-12-29T02:03:39;99745.38;;;12.09;87.44
68075;BME280;54864;52.002;5.468;2022-12-29T02:04:41;99739.03;;;12.12;87.16
68075;BME280;54864;52.002;5.468;2022-12-29T02:05:49;99743.78;;;12.06;87.04
68075;BME280;54864;52.002;5.468;2022-12-29T02:06:59;99738.81;;;11.89;87.66
68075;BME280;54864;52.002;5.468;2022-12-29T02:08:08;99739.75;;;12.01;87.46
68075;BME280;54864;52.002;5.468;2022-12-29T02:09:11;99734.91;;;11.95;87.41
68075;BME280;54864;52.002;5.468;2022-12-29T02:10:14;99713.25;;;12.02;87.02
68075;BME280;54864;52.002;5.468;2022-12-29T02:11:16;99730.66;;;11.92;87.16
68075;BME280;54864;52.002;5.468;2022-12-29T02:12:20;99730.88;;;12.02;86.65
68075;BME280;54864;52.002;5.468;2022-12-29T02:13:23;99739.72;;;11.75;86.72
68075;BME280;54864;52.002;5.468;2022-12-29T02:14:26;99727.66;;;11.71;86.90
68075;BME280;54864;52.002;5.468;2022-12-29T02:15:35;99720.63;;;11.85;86.54
68075;BME280;54864;52.002;5.468;2022-12-29T02:16:58;99729.59;;;11.82;86.26
68075;BME280;54864;52.002;5.468;2022-12-29T02:18:18;99725.06;;;11.84;86.26
68075;BME280;54864;52.002;5.468;2022-12-29T02:21:45;99723.16;;;11.86;85.38
68075;BME280;54864;52.002;5.468;2022-12-29T02:23:12;99719.56;;;11.87;85.09
68075;BME280;54864;52.002;5.468;2022-12-29T02:25:00;99723.91;;;12.01;84.05
68075;BME280;54864;52.002;5.468;2022-12-29T02:26:33;99719.25;;;12.04;82.29
68075;BME280;54864;52.002;5.468;2022-12-29T02:27:51;99710.59;;;12.02;81.91
68075;BME280;54864;52.002;5.468;2022-12-29T02:29:24;99710.69;;;12.01;81.29
68075;BME280;54864;52.002;5.468;2022-12-29T02:31:00;99726.88;;;12.09;81.06
68075;BME280;54864;52.002;5.468;2022-12-29T02:32:18;99724.44;;;12.06;80.71
68075;BME280;54864;52.002;5.468;2022-12-29T02:33:37;99719.56;;;12.00;80.76
68075;BME280;54864;52.002;5.468;2022-12-29T02:35:01;99734.38;;;12.15;80.07
68075;BME280;54864;52.002;5.468;2022-12-29T02:36:11;99727.41;;;12.01;80.01
68075;BME280;54864;52.002;5.468;2022-12-29T02:37:25;99726.88;;;12.09;79.19
68075;BME280;54864;52.002;5.468;2022-12-29T02:38:43;99729.28;;;12.12;79.32
68075;BME280;54864;52.002;5.468;2022-12-29T02:39:56;99743.13;;;12.03;78.74
68075;BME280;54864;52.002;5.468;2022-12-29T02:41:11;99735.09;;;12.17;79.42
68075;BME280;54864;52.002;5.468;2022-12-29T02:42:23;99735.09;;;12.17;79.18
68075;BME280;54864;52.002;5.468;2022-12-29T02:43:39;99735.00;;;12.06;79.36
68075;BME280;54864;52.002;5.468;2022-12-29T02:44:57;99729.28;;;11.99;80.17
68075;BME280;54864;52.002;5.468;2022-12-29T02:46:12;99732.69;;;12.14;80.38
68075;BME280;54864;52.002;5.468;2022-12-29T02:47:29;99727.19;;;12.04;80.01
68075;BME280;54864;52.002;5.468;2022-12-29T02:48:42;99739.44;;;12.18;80.02
68075;BME280;54864;52.002;5.468;2022-12-29T02:49:54;99738.50;;;12.19;80.22
68075;BME280;54864;52.002;5.468;2022-12-29T02:51:02;99734.91;;;12.20;80.46
68075;BME280;54864;52.002;5.468;2022-12-29T02:52:09;99732.44;;;12.30;80.07
68075;BME280;54864;52.002;5.468;2022-12-29T02:53:18;99743.34;;;12.25;80.09
68075;BME280;54864;52.002;5.468;2022-12-29T02:54:41;99733.41;;;12.29;80.13
68075;BME280;54864;52.002;5.468;2022-12-29T02:55:48;99724.13;;;12.23;80.32
68075;BME280;54864;52.002;5.468;2022-12-29T02:56:50;99724.13;;;12.36;79.92
68075;BME280;54864;52.002;5.468;2022-12-29T02:58:12;99722.31;;;12.36;80.30
68075;BME280;54864;52.002;5.468;2022-12-29T02:59:18;99726.66;;;12.37;80.00
68075;BME280;54864;52.002;5.468;2022-12-29T03:00:20;99723.47;;;12.32;79.97
68075;BME280;54864;52.002;5.468;2022-12-29T03:01:29;99719.38;;;12.41;79.68
68075;BME280;54864;52.002;5.468;2022-12-29T03:03:16;99723.16;;;12.24;80.67
68075;BME280;54864;52.002;5.468;2022-12-29T03:04:34;99720.53;;;12.37;80.92
68075;BME280;54864;52.002;5.468;2022-12-29T03:06:08;99717.56;;;12.42;80.87
68075;BME280;54864;52.002;5.468;2022-12-29T03:07:30;99731.09;;;12.37;81.04
68075;BME280;54864;52.002;5.468;2022-12-29T03:08:44;99710.34;;;12.31;81.16
68075;BME280;54864;52.002;5.468;2022-12-29T03:10:00;99725.50;;;12.16;81.38
68075;BME280;54864;52.002;5.468;2022-12-29T03:11:10;99727.28;;;12.28;81.05
68075;BME280;54864;52.002;5.468;2022-12-29T03:12:31;99725.28;;;12.19;80.48
68075;BME280;54864;52.002;5.468;2022-12-29T03:13:58;99721.69;;;11.95;80.73
68075;BME280;54864;52.002;5.468;2022-12-29T03:15:23;99724.97;;;12.11;80.56
68075;BME280;54864;52.002;5.468;2022-12-29T03:16:55;99721.59;;;12.09;79.96
68075;BME280;54864;52.002;5.468;2022-12-29T03:18:06;99714.72;;;12.19;79.09
68075;BME280;54864;52.002;5.468;2022-12-29T03:19:16;99724.22;;;12.09;78.86
68075;BME280;54864;52.002;5.468;2022-12-29T03:20:26;99715.13;;;12.00;79.03
68075;BME280;54864;52.002;5.468;2022-12-29T03:21:36;99722.84;;;12.03;79.18
68075;BME280;54864;52.002;5.468;2022-12-29T03:23:00;99724.75;;;12.01;79.01
68075;BME280;54864;52.002;5.468;2022-12-29T03:24:05;99725.19;;;12.08;78.76
68075;BME280;54864;52.002;5.468;2022-12-29T03:25:09;99721.69;;;12.07;78.54
68075;BME280;54864;52.002;5.468;2022-12-29T03:26:17;99731.81;;;12.26;78.17
68075;BME280;54864;52.002;5.468;2022-12-29T03:27:23;99725.06;;;12.10;77.72
68075;BME280;54864;52.002;5.468;2022-12-29T03:28:29;99724.00;;;11.99;77.84
68075;BME280;54864;52.002;5.468;2022-12-29T03:29:40;99712.19;;;11.92;78.13
68075;BME280;54864;52.002;5.468;2022-12-29T03:30:47;99706.47;;;11.98;78.46
68075;BME280;54864;52.002;5.468;2022-12-29T03:31:49;99714.53;;;11.70;79.24
68075;BME280;54864;52.002;5.468;2022-12-29T03:32:56;99714.50;;;11.97;78.36
68075;BME280;54864;52.002;5.468;2022-12-29T03:34:04;99705.00;;;12.07;77.88
68075;BME280;54864;52.002;5.468;2022-12-29T03:35:11;99704.25;;;12.18;77.09
68075;BME280;54864;52.002;5.468;2022-12-29T03:36:22;99717.16;;;12.10;77.60
68075;BME280;54864;52.002;5.468;2022-12-29T03:37:29;99712.91;;;11.94;78.00
68075;BME280;54864;52.002;5.468;2022-12-29T03:38:44;99704.66;;;12.12;77.55
68075;BME280;54864;52.002;5.468;2022-12-29T03:39:50;99702.34;;;12.20;77.26
68075;BME280;54864;52.002;5.468;2022-12-29T03:40:55;99704.03;;;12.08;77.31
68075;BME280;54864;52.002;5.468;2022-12-29T03:42:02;99706.69;;;12.08;77.64
68075;BME280;54864;52.002;5.468;2022-12-29T03:43:07;99714.41;;;12.11;77.07
68075;BME280;54864;52.002;5.468;2022-12-29T03:44:09;99714.59;;;12.08;77.34
68075;BME280;54864;52.002;5.468;2022-12-29T03:45:11;99701.59;;;12.18;77.46
68075;BME280;54864;52.002;5.468;2022-12-29T03:46:12;99699.19;;;12.15;77.36
68075;BME280;54864;52.002;5.468;2022-12-29T03:47:16;99697.91;;;12.07;77.00
68075;BME280;54864;52.002;5.468;2022-12-29T03:48:17;99697.06;;;12.20;76.77
68075;BME280;54864;52.002;5.468;2022-12-29T03:49:19;99697.91;;;12.20;77.18
68075;BME280;54864;52.002;5.468;2022-12-29T03:50:20;99689.34;;;12.17;77.23
68075;BME280;54864;52.002;5.468;2022-12-29T03:51:22;99698.53;;;12.24;76.81
68075;BME280;54864;52.002;5.468;2022-12-29T03:52:24;99699.59;;;12.21;77.11
68075;BME280;54864;52.002;5.468;2022-12-29T03:53:26;99697.47;;;12.14;76.89
68075;BME280;54864;52.002;5.468;2022-12-29T03:54:27;99705.53;;;12.12;77.28
68075;BME280;54864;52.002;5.468;2022-12-29T03:55:29;99700.97;;;12.01;77.86
68075;BME280;54864;52.002;5.468;2022-12-29T03:56:30;99698.97;;;12.05;77.56
68075;BME280;54864;52.002;5.468;2022-12-29T03:57:32;99706.38;;;12.13;77.34
68075;BME280;54864;52.002;5.468;2022-12-29T03:58:34;99699.50;;;12.10;77.66
68075;BME280;54864;52.002;5.468;2022-12-29T03:59:36;99699.81;;;11.93;78.47
68075;BME280;54864;52.002;5.468;2022-12-29T04:00:37;99708.91;;;11.89;78.75
68075;BME280;54864;52.002;5.468;2022-12-29T04:01:39;99695.38;;;11.93;79.03
68075;BME280;54864;52.002;5.468;2022-12-29T04:02:42;99705.53;;;11.99;78.98
68075;BME280;54864;52.002;5.468;2022-12-29T04:03:44;99701.72;;;12.03;78.88
68075;BME280;54864;52.002;5.468;2022-12-29T04:04:45;99704.78;;;11.97;78.55
68075;BME280;54864;52.002;5.468;2022-12-29T04:05:47;99705.94;;;11.93;78.80
68075;BME280;54864;52.002;5.468;2022-12-29T04:06:48;99688.31;;;11.94;79.47
68075;BME280;54864;52.002;5.468;2022-12-29T04:07:50;99706.06;;;12.04;78.59
68075;BME280;54864;52.002;5.468;2022-12-29T04:08:51;99703.41;;;12.04;78.34
68075;BME280;54864;52.002;5.468;2022-12-29T04:09:53;99698.88;;;12.06;78.39
68075;BME280;54864;52.002;5.468;2022-12-29T04:10:54;99685.97;;;12.02;78.27
68075;BME280;54864;52.002;5.468;2022-12-29T04:11:56;99693.47;;;12.08;77.99
68075;BME280;54864;52.002;5.468;2022-12-29T04:12:57;99690.84;;;12.08;77.53
68075;BME280;54864;52.002;5.468;2022-12-29T04:13:59;99690.94;;;11.94;78.10
68075;BME280;54864;52.002;5.468;2022-12-29T04:15:00;99691.91;;;11.93;77.89
68075;BME280;54864;52.002;5.468;2022-12-29T04:16:03;99699.31;;;11.61;79.64
68075;BME280;54864;52.002;5.468;2022-12-29T04:17:04;99700.09;;;11.75;79.02
68075;BME280;54864;52.002;5.468;2022-12-29T04:18:11;99703.41;;;11.79;78.43
68075;BME280;54864;52.002;5.468;2022-12-29T04:19:12;99706.34;;;11.74;78.85
68075;BME280;54864;52.002;5.468;2022-12-29T04:20:14;99696.88;;;11.85;78.47
68075;BME280;54864;52.002;5.468;2022-12-29T04:21:34;99704.16;;;11.81;78.35
68075;BME280;54864;52.002;5.468;2022-12-29T04:22:36;99697.09;;;11.67;78.32
68075;BME280;54864;52.002;5.468;2022-12-29T04:23:39;99703.19;;;11.82;78.39
68075;BME280;54864;52.002;5.468;2022-12-29T04:24:42;99702.88;;;11.87;77.99
68075;BME280;54864;52.002;5.468;2022-12-29T04:25:45;99707.53;;;11.83;77.91
68075;BME280;54864;52.002;5.468;2022-12-29T04:26:47;99703.59;;;11.76;78.11
68075;BME280;54864;52.002;5.468;2022-12-29T04:27:49;99715.44;;;11.83;78.11
68075;BME280;54864;52.002;5.468;2022-12-29T04:28:51;99711.22;;;11.81;78.32
68075;BME280;54864;52.002;5.468;2022-12-29T04:29:51;99715.97;;;11.88;77.85
68075;BME280;54864;52.002;5.468;2022-12-29T04:30:53;99718.41;;;11.91;77.66
68075;BME280;54864;52.002;5.468;2022-12-29T04:31:55;99721.47;;;11.85;77.50
68075;BME280;54864;52.002;5.468;2022-12-29T04:32:57;99714.16;;;11.76;77.40
68075;BME280;54864;52.002;5.468;2022-12-29T04:33:59;99720.69;;;11.70;77.40
68075;BME280;54864;52.002;5.468;2022-12-29T04:35:01;99720.28;;;11.77;77.00
68075;BME280;54864;52.002;5.468;2022-12-29T04:36:02;99722.00;;;11.51;76.66
68075;BME280;54864;52.002;5.468;2022-12-29T04:37:05;99723.50;;;11.55;76.66
68075;BME280;54864;52.002;5.468;2022-12-29T04:38:06;99727.41;;;11.62;76.64
68075;BME280;54864;52.002;5.468;2022-12-29T04:39:08;99728.34;;;11.61;76.51
68075;BME280;54864;52.002;5.468;2022-12-29T04:40:10;99725.19;;;11.68;75.43
68075;BME280;54864;52.002;5.468;2022-12-29T04:41:13;99727.41;;;11.62;75.59
68075;BME280;54864;52.002;5.468;2022-12-29T04:42:15;99734.34;;;11.50;75.58
68075;BME280;54864;52.002;5.468;2022-12-29T04:43:16;99738.06;;;11.60;75.78
68075;BME280;54864;52.002;5.468;2022-12-29T04:44:19;99731.72;;;11.63;75.38
68075;BME280;54864;52.002;5.468;2022-12-29T04:45:20;99736.16;;;11.62;75.57
68075;BME280;54864;52.002;5.468;2022-12-29T04:46:23;99748.31;;;11.65;75.20
68075;BME280;54864;52.002;5.468;2022-12-29T04:47:24;99739.75;;;11.61;75.34
68075;BME280;54864;52.002;5.468;2022-12-29T04:48:26;99744.72;;;11.66;75.18
68075;BME280;54864;52.002;5.468;2022-12-29T04:49:28;99746.22;;;11.70;75.09
68075;BME280;54864;52.002;5.468;2022-12-29T04:50:30;99755.38;;;11.79;74.98
68075;BME280;54864;52.002;5.468;2022-12-29T04:51:31;99755.38;;;11.79;74.51
68075;BME280;54864;52.002;5.468;2022-12-29T04:52:33;99751.81;;;11.65;74.49
68075;BME280;54864;52.002;5.468;2022-12-29T04:53:34;99745.69;;;11.65;74.79
68075;BME280;54864;52.002;5.468;2022-12-29T04:54:36;99746.31;;;11.68;74.93
68075;BME280;54864;52.002;5.468;2022-12-29T04:55:37;99755.38;;;11.79;74.52
68075;BME280;54864;52.002;5.468;2022-12-29T04:56:39;99757.50;;;11.86;74.21
68075;BME280;54864;52.002;5.468;2022-12-29T04:57:41;99746.72;;;11.62;74.08
68075;BME280;54864;52.002;5.468;2022-12-29T04:58:43;99758.13;;;11.63;74.59
68075;BME280;54864;52.002;5.468;2022-12-29T04:59:44;99753.22;;;11.71;74.29
68075;BME280;54864;52.002;5.468;2022-12-29T05:00:46;99757.56;;;11.72;74.13
68075;BME280;54864;52.002;5.468;2022-12-29T05:01:48;99758.88;;;11.79;73.53
68075;BME280;54864;52.002;5.468;2022-12-29T05:02:49;99770.84;;;11.70;72.84
68075;BME280;54864;52.002;5.468;2022-12-29T05:03:51;99762.44;;;11.78;73.02
68075;BME280;54864;52.002;5.468;2022-12-29T05:04:53;99760.66;;;11.79;72.95
68075;BME280;54864;52.002;5.468;2022-12-29T05:05:56;99769.75;;;11.60;73.90
68075;BME280;54864;52.002;5.468;2022-12-29T05:06:58;99758.56;;;11.69;73.49
68075;BME280;54864;52.002;5.468;2022-12-29T05:08:00;99766.56;;;11.82;72.94
68075;BME280;54864;52.002;5.468;2022-12-29T05:09:01;99765.00;;;11.80;72.85
68075;BME280;54864;52.002;5.468;2022-12-29T05:10:03;99766.69;;;11.81;72.53
68075;BME280;54864;52.002;5.468;2022-12-29T05:11:09;99767.81;;;11.77;72.73
68075;BME280;54864;52.002;5.468;2022-12-29T05:12:11;99778.94;;;11.82;72.99
68075;BME280;54864;52.002;5.468;2022-12-29T05:13:12;99761.69;;;11.76;72.17
68075;BME280;54864;52.002;5.468;2022-12-29T05:14:14;99772.63;;;11.70;72.77
68075;BME280;54864;52.002;5.468;2022-12-29T05:15:15;99770.28;;;11.65;72.67
68075;BME280;54864;52.002;5.468;2022-12-29T05:16:17;99776.81;;;11.60;72.71
68075;BME280;54864;52.002;5.468;2022-12-29T05:17:18;99765.41;;;11.59;73.46
68075;BME280;54864;52.002;5.468;2022-12-29T05:18:20;99773.75;;;11.53;73.52
68075;BME280;54864;52.002;5.468;2022-12-29T05:19:21;99772.25;;;11.49;73.83
68075;BME280;54864;52.002;5.468;2022-12-29T05:20:25;99769.19;;;11.55;73.33
68075;BME280;54864;52.002;5.468;2022-12-29T05:21:26;99773.84;;;11.52;73.90
68075;BME280;54864;52.002;5.468;2022-12-29T05:22:28;99779.88;;;11.27;74.34
68075;BME280;54864;52.002;5.468;2022-12-29T05:23:29;99764.09;;;11.39;74.01
68075;BME280;54864;52.002;5.468;2022-12-29T05:24:31;99777.16;;;11.28;73.86
68075;BME280;54864;52.002;5.468;2022-12-29T05:25:32;99778.34;;;11.37;73.78
68075;BME280;54864;52.002;5.468;2022-12-29T05:26:34;99773.81;;;11.39;73.81
68075;BME280;54864;52.002;5.468;2022-12-29T05:27:35;99771.25;;;11.37;73.51
68075;BME280;54864;52.002;5.468;2022-12-29T05:28:37;99771.25;;;11.37;73.64
68075;BME280;54864;52.002;5.468;2022-12-29T05:29:38;99779.72;;;11.42;73.16
68075;BME280;54864;52.002;5.468;2022-12-29T05:30:40;99777.63;;;11.48;73.40
68075;BME280;54864;52.002;5.468;2022-12-29T05:31:41;99784.06;;;11.43;73.16
68075;BME280;54864;52.002;5.468;2022-12-29T05:32:43;99773.16;;;11.35;73.37
68075;BME280;54864;52.002;5.468;2022-12-29T05:33:44;99776.13;;;11.43;73.46
68075;BME280;54864;52.002;5.468;2022-12-29T05:34:46;99773.06;;;11.37;73.54
68075;BME280;54864;52.002;5.468;2022-12-29T05:35:48;99774.66;;;11.39;73.48
68075;BME280;54864;52.002;5.468;2022-12-29T05:36:51;99789.28;;;11.31;73.36
68075;BME280;54864;52.002;5.468;2022-12-29T05:37:52;99783.38;;;11.27;73.67
68075;BME280;54864;52.002;5.468;2022-12-29T05:38:54;99784.16;;;11.42;73.61
68075;BME280;54864;52.002;5.468;2022-12-29T05:39:55;99779.63;;;11.44;73.36
68075;BME280;54864;52.002;5.468;2022-12-29T05:40:57;99775.44;;;11.27;73.86
68075;BME280;54864;52.002;5.468;2022-12-29T05:41:57;99778.88;;;11.42;72.92
68075;BME280;54864;52.002;5.468;2022-12-29T05:42:59;99773.75;;;11.53;72.68
68075;BME280;54864;52.002;5.468;2022-12-29T05:44:01;99771.19;;;11.52;72.45
68075;BME280;54864;52.002;5.468;2022-12-29T05:45:03;99775.63;;;11.51;72.27
68075;BME280;54864;52.002;5.468;2022-12-29T05:46:07;99769.41;;;11.52;71.77
68075;BME280;54864;52.002;5.468;2022-12-29T05:47:09;99772.78;;;11.54;71.08
68075;BME280;54864;52.002;5.468;2022-12-29T05:48:10;99782.81;;;11.49;71.38
68075;BME280;54864;52.002;5.468;2022-12-29T05:49:13;99777.69;;;11.33;71.42
68075;BME280;54864;52.002;5.468;2022-12-29T05:50:14;99780.97;;;11.37;71.69
68075;BME280;54864;52.002;5.468;2022-12-29T05:51:18;99773.31;;;11.47;71.38
68075;BME280;54864;52.002;5.468;2022-12-29T05:52:19;99778.91;;;11.55;71.43
68075;BME280;54864;52.002;5.468;2022-12-29T05:53:21;99770.91;;;11.56;70.58
68075;BME280;54864;52.002;5.468;2022-12-29T05:54:22;99767.00;;;11.62;70.18